sensor_id;sensor_type;location;lat;lon;timestamp;pressure;altitude;pressure_sealevel;temperature;humidity
15487;BME280;7845;53.698;10.078;2022-11-15T00:00:48;100658.00;;;7.73;100.00
15487;BME280;7845;53.698;10.078;2022-11-15T00:03:15;100651.94;;;7.73;100.00
15487;BME280;7845;53.698;10.078;2022-11-15T00:05:40;100651.06;;;7.72;100.00
15487;BME280;7845;53.698;10.078;2022-11-15T00:08:06;100650.19;;;7.72;100.00
15487;BME280;7845;53.698;10.078;2022-11-15T00:10:31;100652.81;;;7.70;100.00
15487;BME280;7845;53.698;10.078;2022-11-15T00:12:56;100650.22;;;7.70;100.00
15487;BME280;7845;53.698;10.078;2022-11-15T00:15:22;100651.91;;;7.71;100.00
15487;BME280;7845;53.698;10.078;2022-11-15T00:17:50;100655.41;;;7.70;100.00
15487;BME280;7845;53.698;10.078;2022-11-15T00:20:17;100646.72;;;7.71;100.00
15487;BME280;7845;53.698;10.078;2022-11-15T00:22:42;100648.47;;;7.69;100.00
15487;BME280;7845;53.698;10.078;2022-11-15T00:25:08;100651.91;;;7.68;100.00
15487;BME280;7845;53.698;10.078;2022-11-15T00:27:34;100645.00;;;7.64;100.00
15487;BME280;7845;53.698;10.078;2022-11-15T00:30:00;100639.78;;;7.66;100.00
15487;BME280;7845;53.698;10.078;2022-11-15T00:32:25;100641.50;;;7.65;100.00
15487;BME280;7845;53.698;10.078;2022-11-15T00:34:50;100641.50;;;7.65;100.00
15487;BME280;7845;53.698;10.078;2022-11-15T00:37:16;100640.66;;;7.63;100.00
15487;BME280;7845;53.698;10.078;2022-11-15T00:39:41;100649.31;;;7.65;100.00
15487;BME280;7845;53.698;10.078;2022-11-15T00:42:07;100648.44;;;7.65;100.00
15487;BME280;7845;53.698;10.078;2022-11-15T00:44:32;100664.03;;;7.66;100.00
15487;BME280;7845;53.698;10.078;2022-11-15T00:46:58;100656.25;;;7.63;100.00
15487;BME280;7845;53.698;10.078;2022-11-15T00:49:23;100660.56;;;7.60;100.00
15487;BME280;7845;53.698;10.078;2022-11-15T00:51:49;100651.03;;;7.59;100.00
15487;BME280;7845;53.698;10.078;2022-11-15T00:54:14;100645.81;;;7.59;100.00
15487;BME280;7845;53.698;10.078;2022-11-15T00:56:39;100654.47;;;7.56;100.00
15487;BME280;7845;53.698;10.078;2022-11-15T00:59:04;100645.81;;;7.56;100.00
15487;BME280;7845;53.698;10.078;2022-11-15T01:01:30;100645.84;;;7.54;100.00
15487;BME280;7845;53.698;10.078;2022-11-15T01:03:57;100657.09;;;7.56;100.00
15487;BME280;7845;53.698;10.078;2022-11-15T01:06:22;100644.97;;;7.57;100.00
15487;BME280;7845;53.698;10.078;2022-11-15T01:08:48;100654.50;;;7.55;100.00
15487;BME280;7845;53.698;10.078;2022-11-15T01:11:15;100654.47;;;7.56;100.00
15487;BME280;7845;53.698;10.078;2022-11-15T01:13:40;100639.78;;;7.55;100.00
15487;BME280;7845;53.698;10.078;2022-11-15T01:16:08;100645.81;;;7.56;100.00
15487;BME280;7845;53.698;10.078;2022-11-15T01:18:34;100643.22;;;7.54;100.00
15487;BME280;7845;53.698;10.078;2022-11-15T01:20:59;100632.81;;;7.53;100.00
15487;BME280;7845;53.698;10.078;2022-11-15T01:23:29;100639.75;;;7.54;100.00
15487;BME280;7845;53.698;10.078;2022-11-15T01:25:59;100639.75;;;7.54;100.00
15487;BME280;7845;53.698;10.078;2022-11-15T01:28:25;100635.41;;;7.53;100.00
15487;BME280;7845;53.698;10.078;2022-11-15T01:30:50;100632.81;;;7.53;100.00
15487;BME280;7845;53.698;10.078;2022-11-15T01:33:16;100627.66;;;7.54;100.00
15487;BME280;7845;53.698;10.078;2022-11-15T01:35:42;100619.84;;;7.56;100.00
15487;BME280;7845;53.698;10.078;2022-11-15T01:38:08;100619.00;;;7.54;100.00
15487;BME280;7845;53.698;10.078;2022-11-15T01:40:34;100624.19;;;7.54;100.00
15487;BME280;7845;53.698;10.078;2022-11-15T01:43:19;100627.63;;;7.53;100.00
15487;BME280;7845;53.698;10.078;2022-11-15T01:45:52;100619.84;;;7.51;100.00
15487;BME280;7845;53.698;10.078;2022-11-15T01:48:22;100618.97;;;7.51;100.00
15487;BME280;7845;53.698;10.078;2022-11-15T01:50:48;100621.59;;;7.49;100.00
15487;BME280;7845;53.698;10.078;2022-11-15T01:53:15;100618.97;;;7.48;100.00
15487;BME280;7845;53.698;10.078;2022-11-15T01:55:41;100616.38;;;7.48;100.00
15487;BME280;7845;53.698;10.078;2022-11-15T01:58:07;100612.91;;;7.46;100.00
15487;BME280;7845;53.698;10.078;2022-11-15T02:00:33;100624.16;;;7.45;100.00
15487;BME280;7845;53.698;10.078;2022-11-15T02:02:58;100627.59;;;7.44;100.00
15487;BME280;7845;53.698;10.078;2022-11-15T02:05:25;100624.16;;;7.42;100.00
15487;BME280;7845;53.698;10.078;2022-11-15T02:07:51;100612.03;;;7.41;100.00
15487;BME280;7845;53.698;10.078;2022-11-15T02:10:22;100602.53;;;7.40;100.00
15487;BME280;7845;53.698;10.078;2022-11-15T02:12:49;100597.31;;;7.37;100.00
15487;BME280;7845;53.698;10.078;2022-11-15T02:15:15;100593.84;;;7.36;100.00
15487;BME280;7845;53.698;10.078;2022-11-15T02:20:47;100595.59;;;7.31;100.00
15487;BME280;7845;53.698;10.078;2022-11-15T02:25:51;100590.38;;;7.31;100.00
15487;BME280;7845;53.698;10.078;2022-11-15T02:28:37;100600.75;;;7.30;100.00
15487;BME280;7845;53.698;10.078;2022-11-15T02:31:40;100599.03;;;7.27;100.00
15487;BME280;7845;53.698;10.078;2022-11-15T02:34:32;100609.41;;;7.26;100.00
15487;BME280;7845;53.698;10.078;2022-11-15T02:37:07;100602.47;;;7.24;100.00
15487;BME280;7845;53.698;10.078;2022-11-15T02:39:44;100599.88;;;7.21;100.00
15487;BME280;7845;53.698;10.078;2022-11-15T02:42:17;100598.13;;;7.20;100.00
15487;BME280;7845;53.698;10.078;2022-11-15T02:45:06;100599.84;;;7.17;100.00
15487;BME280;7845;53.698;10.078;2022-11-15T02:47:39;100598.13;;;7.16;100.00
15487;BME280;7845;53.698;10.078;2022-11-15T02:50:10;100595.50;;;7.08;100.00
15487;BME280;7845;53.698;10.078;2022-11-15T02:52:37;100596.34;;;7.00;100.00
15487;BME280;7845;53.698;10.078;2022-11-15T02:55:02;100595.44;;;6.96;100.00
15487;BME280;7845;53.698;10.078;2022-11-15T02:57:40;100602.38;;;6.94;100.00
15487;BME280;7845;53.698;10.078;2022-11-15T03:00:12;100591.13;;;6.94;100.00
15487;BME280;7845;53.698;10.078;2022-11-15T03:08:10;100603.19;;;6.86;100.00
15487;BME280;7845;53.698;10.078;2022-11-15T03:13:39;100592.75;;;6.75;100.00
15487;BME280;7845;53.698;10.078;2022-11-15T03:16:30;100604.88;;;6.76;100.00
15487;BME280;7845;53.698;10.078;2022-11-15T03:19:13;100599.72;;;6.78;100.00
15487;BME280;7845;53.698;10.078;2022-11-15T03:21:43;100597.94;;;6.74;100.00
15487;BME280;7845;53.698;10.078;2022-11-15T03:24:11;100593.59;;;6.69;100.00
15487;BME280;7845;53.698;10.078;2022-11-15T03:26:39;100597.91;;;6.67;100.00
15487;BME280;7845;53.698;10.078;2022-11-15T03:29:12;100603.94;;;6.62;100.00
15487;BME280;7845;53.698;10.078;2022-11-15T03:31:46;100597.88;;;6.61;100.00
15487;BME280;7845;53.698;10.078;2022-11-15T03:36:51;100603.06;;;6.61;100.00
15487;BME280;7845;53.698;10.078;2022-11-15T03:39:18;100597.91;;;6.60;100.00
15487;BME280;7845;53.698;10.078;2022-11-15T03:45:05;100595.25;;;6.55;100.00
15487;BME280;7845;53.698;10.078;2022-11-15T03:47:39;100597.00;;;6.53;100.00
15487;BME280;7845;53.698;10.078;2022-11-15T03:50:15;100596.09;;;6.51;100.00
15487;BME280;7845;53.698;10.078;2022-11-15T03:52:42;100595.25;;;6.48;100.00
15487;BME280;7845;53.698;10.078;2022-11-15T03:55:13;100595.19;;;6.42;100.00
15487;BME280;7845;53.698;10.078;2022-11-15T03:57:38;100588.31;;;6.47;100.00
15487;BME280;7845;53.698;10.078;2022-11-15T04:00:05;100590.84;;;6.42;100.00
15487;BME280;7845;53.698;10.078;2022-11-15T04:02:30;100596.06;;;6.48;100.00
15487;BME280;7845;53.698;10.078;2022-11-15T04:04:56;100586.59;;;6.50;100.00
15487;BME280;7845;53.698;10.078;2022-11-15T04:07:21;100586.63;;;6.53;100.00
15487;BME280;7845;53.698;10.078;2022-11-15T04:09:50;100594.38;;;6.50;100.00
15487;BME280;7845;53.698;10.078;2022-11-15T04:12:39;100591.81;;;6.53;100.00
15487;BME280;7845;53.698;10.078;2022-11-15T04:15:12;100600.44;;;6.52;100.00
15487;BME280;7845;53.698;10.078;2022-11-15T04:20:21;100596.03;;;6.42;100.00
15487;BME280;7845;53.698;10.078;2022-11-15T04:23:10;100596.88;;;6.37;100.00
15487;BME280;7845;53.698;10.078;2022-11-15T04:25:55;100589.13;;;6.40;100.00
15487;BME280;7845;53.698;10.078;2022-11-15T04:28:39;100593.41;;;6.35;100.00
15487;BME280;7845;53.698;10.078;2022-11-15T04:31:25;100591.72;;;6.40;100.00
15487;BME280;7845;53.698;10.078;2022-11-15T04:33:50;100596.03;;;6.38;100.00
15487;BME280;7845;53.698;10.078;2022-11-15T04:36:16;100599.44;;;6.34;100.00
15487;BME280;7845;53.698;10.078;2022-11-15T04:39:00;100601.19;;;6.39;100.00
15487;BME280;7845;53.698;10.078;2022-11-15T04:41:26;100599.47;;;6.40;100.00
15487;BME280;7845;53.698;10.078;2022-11-15T04:43:51;100601.22;;;6.42;100.00
15487;BME280;7845;53.698;10.078;2022-11-15T04:46:16;100605.63;;;6.51;100.00
15487;BME280;7845;53.698;10.078;2022-11-15T04:48:42;100607.38;;;6.58;100.00
15487;BME280;7845;53.698;10.078;2022-11-15T04:51:07;100603.97;;;6.66;100.00
15487;BME280;7845;53.698;10.078;2022-11-15T04:53:33;100607.47;;;6.75;100.00
15487;BME280;7845;53.698;10.078;2022-11-15T04:55:58;100611.81;;;6.79;100.00
15487;BME280;7845;53.698;10.078;2022-11-15T04:58:24;100608.34;;;6.80;100.00
15487;BME280;7845;53.698;10.078;2022-11-15T05:00:49;100612.69;;;6.82;100.00
15487;BME280;7845;53.698;10.078;2022-11-15T05:03:14;100607.47;;;6.76;100.00
15487;BME280;7845;53.698;10.078;2022-11-15T05:05:58;100617.81;;;6.65;100.00
15487;BME280;7845;53.698;10.078;2022-11-15T05:08:24;100611.72;;;6.62;100.00
15487;BME280;7845;53.698;10.078;2022-11-15T05:10:49;100610.03;;;6.68;100.00
15487;BME280;7845;53.698;10.078;2022-11-15T05:13:16;100602.28;;;6.75;100.00
15487;BME280;7845;53.698;10.078;2022-11-15T05:15:45;100600.50;;;6.69;100.00
15487;BME280;7845;53.698;10.078;2022-11-15T05:18:11;100610.09;;;6.78;100.00
15487;BME280;7845;53.698;10.078;2022-11-15T05:20:39;100606.66;;;6.86;100.00
15487;BME280;7845;53.698;10.078;2022-11-15T05:23:05;100599.75;;;6.88;100.00
15487;BME280;7845;53.698;10.078;2022-11-15T05:25:35;100598.88;;;6.91;100.00
15487;BME280;7845;53.698;10.078;2022-11-15T05:28:01;100588.56;;;6.98;100.00
15487;BME280;7845;53.698;10.078;2022-11-15T05:30:26;100584.25;;;7.06;100.00
15487;BME280;7845;53.698;10.078;2022-11-15T05:32:51;100593.78;;;7.15;100.00
15487;BME280;7845;53.698;10.078;2022-11-15T05:35:32;100585.16;;;7.23;100.00
15487;BME280;7845;53.698;10.078;2022-11-15T05:37:59;100580.84;;;7.30;100.00
15487;BME280;7845;53.698;10.078;2022-11-15T05:40:26;100573.09;;;7.32;100.00
15487;BME280;7845;53.698;10.078;2022-11-15T05:42:52;100580.88;;;7.32;100.00
15487;BME280;7845;53.698;10.078;2022-11-15T05:45:18;100577.41;;;7.33;100.00
15487;BME280;7845;53.698;10.078;2022-11-15T05:47:44;100585.22;;;7.37;100.00
15487;BME280;7845;53.698;10.078;2022-11-15T05:50:12;100586.06;;;7.42;100.00
15487;BME280;7845;53.698;10.078;2022-11-15T05:52:39;100580.03;;;7.43;100.00
15487;BME280;7845;53.698;10.078;2022-11-15T05:55:06;100581.75;;;7.50;100.00
15487;BME280;7845;53.698;10.078;2022-11-15T05:57:32;100575.69;;;7.53;100.00
15487;BME280;7845;53.698;10.078;2022-11-15T05:59:57;100577.44;;;7.57;100.00
15487;BME280;7845;53.698;10.078;2022-11-15T06:02:23;100571.41;;;7.61;100.00
15487;BME280;7845;53.698;10.078;2022-11-15T06:04:49;100576.59;;;7.64;100.00
15487;BME280;7845;53.698;10.078;2022-11-15T06:07:14;100574.84;;;7.69;100.00
15487;BME280;7845;53.698;10.078;2022-11-15T06:09:40;100576.59;;;7.74;100.00
15487;BME280;7845;53.698;10.078;2022-11-15T06:12:08;100575.72;;;7.78;100.00
15487;BME280;7845;53.698;10.078;2022-11-15T06:14:34;100574.00;;;7.80;100.00
15487;BME280;7845;53.698;10.078;2022-11-15T06:16:59;100576.59;;;7.84;100.00
15487;BME280;7845;53.698;10.078;2022-11-15T06:19:25;100586.13;;;7.89;100.00
15487;BME280;7845;53.698;10.078;2022-11-15T06:21:50;100591.31;;;7.92;100.00
15487;BME280;7845;53.698;10.078;2022-11-15T06:24:15;100593.06;;;7.96;100.00
15487;BME280;7845;53.698;10.078;2022-11-15T06:26:47;100592.19;;;8.00;100.00
15487;BME280;7845;53.698;10.078;2022-11-15T06:29:12;100587.84;;;8.04;100.00
15487;BME280;7845;53.698;10.078;2022-11-15T06:31:38;100590.44;;;8.07;100.00
15487;BME280;7845;53.698;10.078;2022-11-15T06:34:03;100590.47;;;8.05;100.00
15487;BME280;7845;53.698;10.078;2022-11-15T06:36:29;100596.53;;;8.09;100.00
15487;BME280;7845;53.698;10.078;2022-11-15T06:38:54;100593.06;;;8.11;100.00
15487;BME280;7845;53.698;10.078;2022-11-15T06:41:21;100594.78;;;8.14;100.00
15487;BME280;7845;53.698;10.078;2022-11-15T06:43:47;100595.63;;;8.16;100.00
15487;BME280;7845;53.698;10.078;2022-11-15T06:46:13;100595.66;;;8.20;100.00
15487;BME280;7845;53.698;10.078;2022-11-15T06:48:38;100593.91;;;8.22;100.00
15487;BME280;7845;53.698;10.078;2022-11-15T06:51:04;100590.41;;;8.25;100.00
15487;BME280;7845;53.698;10.078;2022-11-15T06:53:30;100600.88;;;8.29;100.00
15487;BME280;7845;53.698;10.078;2022-11-15T06:56:00;100600.88;;;8.32;100.00
15487;BME280;7845;53.698;10.078;2022-11-15T06:58:26;100599.13;;;8.33;100.00
15487;BME280;7845;53.698;10.078;2022-11-15T07:00:52;100603.47;;;8.36;100.00
15487;BME280;7845;53.698;10.078;2022-11-15T07:03:17;100605.16;;;8.37;100.00
15487;BME280;7845;53.698;10.078;2022-11-15T07:05:53;100605.16;;;8.40;100.00
15487;BME280;7845;53.698;10.078;2022-11-15T07:08:26;100608.63;;;8.40;100.00
15487;BME280;7845;53.698;10.078;2022-11-15T07:10:59;100608.66;;;8.42;100.00
15487;BME280;7845;53.698;10.078;2022-11-15T07:13:26;100615.56;;;8.46;100.00
15487;BME280;7845;53.698;10.078;2022-11-15T07:15:53;100607.78;;;8.47;100.00
15487;BME280;7845;53.698;10.078;2022-11-15T07:18:18;100606.88;;;8.51;100.00
15487;BME280;7845;53.698;10.078;2022-11-15T07:20:45;100611.22;;;8.54;100.00
15487;BME280;7845;53.698;10.078;2022-11-15T07:23:10;100616.44;;;8.57;100.00
15487;BME280;7845;53.698;10.078;2022-11-15T07:25:36;100621.59;;;8.58;100.00
15487;BME280;7845;53.698;10.078;2022-11-15T07:28:02;100624.22;;;8.63;100.00
15487;BME280;7845;53.698;10.078;2022-11-15T07:30:27;100621.59;;;8.64;100.00
15487;BME280;7845;53.698;10.078;2022-11-15T07:35:29;100627.63;;;8.72;100.00
15487;BME280;7845;53.698;10.078;2022-11-15T07:40:20;100625.88;;;8.79;100.00
15487;BME280;7845;53.698;10.078;2022-11-15T07:42:48;100618.97;;;8.81;100.00
15487;BME280;7845;53.698;10.078;2022-11-15T07:45:22;100625.88;;;8.83;100.00
15487;BME280;7845;53.698;10.078;2022-11-15T07:47:55;100618.06;;;8.85;100.00
15487;BME280;7845;53.698;10.078;2022-11-15T07:50:22;100615.44;;;8.88;100.00
15487;BME280;7845;53.698;10.078;2022-11-15T07:52:51;100624.13;;;8.88;100.00
15487;BME280;7845;53.698;10.078;2022-11-15T07:55:17;100622.38;;;8.92;100.00
15487;BME280;7845;53.698;10.078;2022-11-15T07:57:43;100625.84;;;8.94;100.00
15487;BME280;7845;53.698;10.078;2022-11-15T08:00:09;100621.47;;;8.96;100.00
15487;BME280;7845;53.698;10.078;2022-11-15T08:02:34;100624.97;;;8.98;100.00
15487;BME280;7845;53.698;10.078;2022-11-15T08:04:59;100613.66;;;8.99;100.00
15487;BME280;7845;53.698;10.078;2022-11-15T08:07:28;100620.59;;;9.03;100.00
15487;BME280;7845;53.698;10.078;2022-11-15T08:09:58;100607.59;;;9.03;100.00
15487;BME280;7845;53.698;10.078;2022-11-15T08:12:27;100606.72;;;9.07;100.00
15487;BME280;7845;53.698;10.078;2022-11-15T08:14:54;100618.00;;;9.11;100.00
15487;BME280;7845;53.698;10.078;2022-11-15T08:17:21;100608.41;;;9.13;100.00
15487;BME280;7845;53.698;10.078;2022-11-15T08:19:49;100605.81;;;9.11;100.00
15487;BME280;7845;53.698;10.078;2022-11-15T08:22:15;100604.06;;;9.12;100.00
15487;BME280;7845;53.698;10.078;2022-11-15T08:24:40;100602.34;;;9.12;100.00
15487;BME280;7845;53.698;10.078;2022-11-15T08:27:07;100605.88;;;9.01;100.00
15487;BME280;7845;53.698;10.078;2022-11-15T08:29:44;100603.22;;;9.08;100.00
15487;BME280;7845;53.698;10.078;2022-11-15T08:32:10;100604.09;;;9.10;100.00
15487;BME280;7845;53.698;10.078;2022-11-15T08:34:37;100599.78;;;9.00;100.00
15487;BME280;7845;53.698;10.078;2022-11-15T08:37:03;100592.84;;;8.99;100.00
15487;BME280;7845;53.698;10.078;2022-11-15T08:39:28;100602.38;;;9.08;100.00
15487;BME280;7845;53.698;10.078;2022-11-15T08:41:53;100596.31;;;9.07;100.00
15487;BME280;7845;53.698;10.078;2022-11-15T08:44:19;100598.88;;;9.12;100.00
15487;BME280;7845;53.698;10.078;2022-11-15T08:46:47;100591.94;;;9.14;100.00
15487;BME280;7845;53.698;10.078;2022-11-15T08:49:12;100610.09;;;9.21;100.00
15487;BME280;7845;53.698;10.078;2022-11-15T08:51:37;100595.38;;;9.19;100.00
15487;BME280;7845;53.698;10.078;2022-11-15T08:54:04;100593.59;;;9.24;100.00
15487;BME280;7845;53.698;10.078;2022-11-15T08:56:29;100597.03;;;9.29;100.00
15487;BME280;7845;53.698;10.078;2022-11-15T08:58:55;100598.78;;;9.34;100.00
15487;BME280;7845;53.698;10.078;2022-11-15T09:01:21;100600.47;;;9.40;100.00
15487;BME280;7845;53.698;10.078;2022-11-15T09:03:46;100603.06;;;9.43;100.00
15487;BME280;7845;53.698;10.078;2022-11-15T09:06:12;100603.91;;;9.47;100.00
15487;BME280;7845;53.698;10.078;2022-11-15T09:08:38;100611.72;;;9.50;100.00
15487;BME280;7845;53.698;10.078;2022-11-15T09:11:05;100616.03;;;9.51;100.00
15487;BME280;7845;53.698;10.078;2022-11-15T09:13:32;100608.22;;;9.52;100.00
15487;BME280;7845;53.698;10.078;2022-11-15T09:16:01;100611.69;;;9.53;100.00
15487;BME280;7845;53.698;10.078;2022-11-15T09:18:27;100615.13;;;9.53;100.00
15487;BME280;7845;53.698;10.078;2022-11-15T09:20:57;100612.53;;;9.55;100.00
15487;BME280;7845;53.698;10.078;2022-11-15T09:23:24;100603.81;;;9.57;100.00
15487;BME280;7845;53.698;10.078;2022-11-15T09:25:50;100610.78;;;9.58;100.00
15487;BME280;7845;53.698;10.078;2022-11-15T09:28:16;100610.75;;;9.61;100.00
15487;BME280;7845;53.698;10.078;2022-11-15T09:30:42;100609.88;;;9.62;100.00
15487;BME280;7845;53.698;10.078;2022-11-15T09:33:10;100609.00;;;9.62;100.00
15487;BME280;7845;53.698;10.078;2022-11-15T09:35:35;100599.41;;;9.65;100.00
15487;BME280;7845;53.698;10.078;2022-11-15T09:38:01;100597.69;;;9.66;100.00
15487;BME280;7845;53.698;10.078;2022-11-15T09:40:27;100607.19;;;9.71;100.00
15487;BME280;7845;53.698;10.078;2022-11-15T09:43:19;100608.91;;;9.75;100.00
15487;BME280;7845;53.698;10.078;2022-11-15T09:46:03;100596.66;;;9.86;100.00
15487;BME280;7845;53.698;10.078;2022-11-15T09:48:50;100598.38;;;9.89;100.00
15487;BME280;7845;53.698;10.078;2022-11-15T09:54:11;100596.63;;;9.94;100.00
15487;BME280;7845;53.698;10.078;2022-11-15T09:56:41;100602.66;;;9.97;100.00
15487;BME280;7845;53.698;10.078;2022-11-15T10:04:38;100599.09;;;10.09;100.00
15487;BME280;7845;53.698;10.078;2022-11-15T10:07:23;100599.94;;;10.14;100.00
15487;BME280;7845;53.698;10.078;2022-11-15T10:10:20;100606.88;;;10.18;100.00
15487;BME280;7845;53.698;10.078;2022-11-15T10:12:50;100599.00;;;10.24;100.00
15487;BME280;7845;53.698;10.078;2022-11-15T10:15:18;100605.94;;;10.27;100.00
15487;BME280;7845;53.698;10.078;2022-11-15T10:18:29;100603.22;;;10.34;100.00
15487;BME280;7845;53.698;10.078;2022-11-15T10:21:06;100598.81;;;10.39;100.00
15487;BME280;7845;53.698;10.078;2022-11-15T10:23:35;100597.06;;;10.44;100.00
15487;BME280;7845;53.698;10.078;2022-11-15T10:26:00;100595.22;;;10.52;100.00
15487;BME280;7845;53.698;10.078;2022-11-15T10:28:28;100596.03;;;10.59;100.00
15487;BME280;7845;53.698;10.078;2022-11-15T10:30:58;100601.19;;;10.64;100.00
15487;BME280;7845;53.698;10.078;2022-11-15T10:33:38;100602.91;;;10.65;100.00
15487;BME280;7845;53.698;10.078;2022-11-15T10:41:13;100588.97;;;10.67;100.00
15487;BME280;7845;53.698;10.078;2022-11-15T10:43:39;100575.00;;;10.70;100.00
15487;BME280;7845;53.698;10.078;2022-11-15T10:46:20;100568.88;;;10.74;100.00
15487;BME280;7845;53.698;10.078;2022-11-15T10:48:45;100566.22;;;10.78;100.00
15487;BME280;7845;53.698;10.078;2022-11-15T10:51:27;100578.38;;;10.81;100.00
15487;BME280;7845;53.698;10.078;2022-11-15T10:53:57;100575.69;;;10.85;100.00
15487;BME280;7845;53.698;10.078;2022-11-15T10:56:26;100574.78;;;10.89;100.00
15487;BME280;7845;53.698;10.078;2022-11-15T10:58:54;100573.03;;;10.91;100.00
15487;BME280;7845;53.698;10.078;2022-11-15T11:01:25;100573.94;;;10.87;100.00
15487;BME280;7845;53.698;10.078;2022-11-15T11:04:06;100566.06;;;10.90;100.00
15487;BME280;7845;53.698;10.078;2022-11-15T11:06:50;100567.78;;;10.91;100.00
15487;BME280;7845;53.698;10.078;2022-11-15T11:09:37;100565.16;;;10.94;100.00
15487;BME280;7845;53.698;10.078;2022-11-15T11:12:05;100559.88;;;10.97;100.00
15487;BME280;7845;53.698;10.078;2022-11-15T11:14:33;100564.25;;;10.98;100.00
15487;BME280;7845;53.698;10.078;2022-11-15T11:17:21;100559.88;;;10.99;100.00
15487;BME280;7845;53.698;10.078;2022-11-15T11:20:07;100554.63;;;11.02;100.00
15487;BME280;7845;53.698;10.078;2022-11-15T11:26:09;100545.78;;;11.10;100.00
15487;BME280;7845;53.698;10.078;2022-11-15T11:28:44;100547.50;;;11.11;100.00
15487;BME280;7845;53.698;10.078;2022-11-15T11:31:56;100543.19;;;11.10;100.00
15487;BME280;7845;53.698;10.078;2022-11-15T11:34:34;100543.09;;;11.17;100.00
15487;BME280;7845;53.698;10.078;2022-11-15T11:47:39;100525.50;;;11.28;100.00
15487;BME280;7845;53.698;10.078;2022-11-15T11:52:58;100519.31;;;11.35;100.00
15487;BME280;7845;53.698;10.078;2022-11-15T11:55:31;100517.44;;;11.41;100.00
15487;BME280;7845;53.698;10.078;2022-11-15T11:58:21;100509.59;;;11.43;100.00
15487;BME280;7845;53.698;10.078;2022-11-15T12:00:54;100506.94;;;11.46;100.00
15487;BME280;7845;53.698;10.078;2022-11-15T12:05:59;100505.06;;;11.54;100.00
15487;BME280;7845;53.698;10.078;2022-11-15T12:14:12;100506.75;;;11.58;100.00
15487;BME280;7845;53.698;10.078;2022-11-15T12:16:42;100506.75;;;11.56;100.00
15487;BME280;7845;53.698;10.078;2022-11-15T12:19:08;100510.22;;;11.58;100.00
15487;BME280;7845;53.698;10.078;2022-11-15T12:21:43;100506.75;;;11.56;100.00
15487;BME280;7845;53.698;10.078;2022-11-15T12:24:22;100497.13;;;11.60;100.00
15487;BME280;7845;53.698;10.078;2022-11-15T12:27:24;100500.50;;;11.66;100.00
15487;BME280;7845;53.698;10.078;2022-11-15T12:30:02;100501.34;;;11.70;100.00
15487;BME280;7845;53.698;10.078;2022-11-15T12:32:37;100496.09;;;11.73;100.00
15487;BME280;7845;53.698;10.078;2022-11-15T12:35:06;100493.41;;;11.76;100.00
15487;BME280;7845;53.698;10.078;2022-11-15T12:37:48;100484.66;;;11.77;100.00
15487;BME280;7845;53.698;10.078;2022-11-15T12:40:21;100478.50;;;11.81;100.00
15487;BME280;7845;53.698;10.078;2022-11-15T12:45:45;100480.19;;;11.85;100.00
15487;BME280;7845;53.698;10.078;2022-11-15T12:58:59;100481.66;;;12.00;100.00
15487;BME280;7845;53.698;10.078;2022-11-15T13:06:41;100472.00;;;12.02;100.00
15487;BME280;7845;53.698;10.078;2022-11-15T13:15:00;100467.59;;;12.05;100.00
15487;BME280;7845;53.698;10.078;2022-11-15T13:17:29;100464.09;;;12.06;100.00
15487;BME280;7845;53.698;10.078;2022-11-15T13:19:59;100470.16;;;12.07;100.00
15487;BME280;7845;53.698;10.078;2022-11-15T13:22:27;100464.03;;;12.09;100.00
15487;BME280;7845;53.698;10.078;2022-11-15T13:30:39;100460.44;;;12.13;100.00
15487;BME280;7845;53.698;10.078;2022-11-15T13:33:09;100465.72;;;12.12;100.00
15487;BME280;7845;53.698;10.078;2022-11-15T13:35:38;100458.72;;;12.14;100.00
15487;BME280;7845;53.698;10.078;2022-11-15T13:38:05;100454.53;;;12.04;100.00
15487;BME280;7845;53.698;10.078;2022-11-15T13:40:35;100441.50;;;12.02;100.00
15487;BME280;7845;53.698;10.078;2022-11-15T13:48:37;100444.13;;;12.01;100.00
15487;BME280;7845;53.698;10.078;2022-11-15T13:51:08;100444.09;;;12.02;100.00
15487;BME280;7845;53.698;10.078;2022-11-15T13:53:38;100439.75;;;12.01;100.00
15487;BME280;7845;53.698;10.078;2022-11-15T13:56:05;100440.63;;;12.03;100.00
15487;BME280;7845;53.698;10.078;2022-11-15T13:58:31;100442.38;;;12.01;100.00
15487;BME280;7845;53.698;10.078;2022-11-15T14:01:00;100425.94;;;11.95;100.00
15487;BME280;7845;53.698;10.078;2022-11-15T14:03:32;100425.00;;;11.99;100.00
15487;BME280;7845;53.698;10.078;2022-11-15T14:06:15;100424.16;;;11.97;100.00
15487;BME280;7845;53.698;10.078;2022-11-15T14:11:35;100417.25;;;11.94;100.00
15487;BME280;7845;53.698;10.078;2022-11-15T14:16:35;100417.31;;;11.90;100.00
15487;BME280;7845;53.698;10.078;2022-11-15T14:19:01;100409.50;;;11.88;100.00
15487;BME280;7845;53.698;10.078;2022-11-15T14:21:28;100413.06;;;11.83;100.00
15487;BME280;7845;53.698;10.078;2022-11-15T14:24:13;100410.44;;;11.84;100.00
15487;BME280;7845;53.698;10.078;2022-11-15T14:26:39;100403.53;;;11.82;100.00
15487;BME280;7845;53.698;10.078;2022-11-15T14:29:24;100398.31;;;11.80;100.00
15487;BME280;7845;53.698;10.078;2022-11-15T14:31:50;100401.84;;;11.79;100.00
15487;BME280;7845;53.698;10.078;2022-11-15T14:34:16;100397.50;;;11.78;100.00
15487;BME280;7845;53.698;10.078;2022-11-15T14:36:41;100401.91;;;11.76;100.00
15487;BME280;7845;53.698;10.078;2022-11-15T14:39:07;100400.25;;;11.71;100.00
15487;BME280;7845;53.698;10.078;2022-11-15T14:41:36;100389.78;;;11.69;100.00
15487;BME280;7845;53.698;10.078;2022-11-15T14:44:06;100391.56;;;11.67;100.00
15487;BME280;7845;53.698;10.078;2022-11-15T14:46:33;100389.00;;;11.64;100.00
15487;BME280;7845;53.698;10.078;2022-11-15T14:48:58;100393.44;;;11.60;100.00